Time;durP1;ratioP1;P1;durP2;ratioP2;P2;SDS_P1;SDS_P2;PMS_P1;PMS_P2;Temp;Humidity;BMP_temperature;BMP_pressure;BME280_temperature;BME280_humidity;BME280_pressure;Samples;Min_cycle;Max_cycle;Signal;HPM_P1;HPM_P2
2024/01/08 00:00:27;;;;;;;;;;;-1.30;99.90;;;;;;5102417;27;20705;-66
2024/01/08 00:02:53;;;;;;;;;;;-1.30;99.90;;;;;;5086261;27;19927;-65
2024/01/08 00:05:19;;;;;;;;;;;-1.30;99.90;;;;;;5072225;27;19935;-66
2024/01/08 00:07:44;;;;;;;;;;;-1.30;99.90;;;;;;5074886;27;19962;-66
2024/01/08 00:10:10;;;;;;;;;;;-1.30;99.90;;;;;;5088463;27;19927;-66
2024/01/08 00:12:36;;;;;;;;;;;-1.30;99.90;;;;;;5072386;27;20301;-66
2024/01/08 00:15:01;;;;;;;;;;;-1.30;99.90;;;;;;5090242;27;20570;-66
2024/01/08 00:17:27;;;;;;;;;;;-1.30;99.90;;;;;;5086895;27;19935;-65
2024/01/08 00:19:52;;;;;;;;;;;-1.30;99.90;;;;;;5093705;27;19955;-66
2024/01/08 00:22:18;;;;;;;;;;;-1.30;99.90;;;;;;5082577;27;19927;-66
2024/01/08 00:24:43;;;;;;;;;;;-1.30;99.90;;;;;;5077297;27;20814;-66
2024/01/08 00:27:09;;;;;;;;;;;-1.30;99.90;;;;;;5090186;27;19927;-66
2024/01/08 00:29:35;;;;;;;;;;;-1.40;99.90;;;;;;5083796;27;19927;-65
2024/01/08 00:32:00;;;;;;;;;;;-1.40;99.90;;;;;;5065430;27;20794;-66
2024/01/08 00:34:27;;;;;;;;;;;-1.50;99.90;;;;;;5095378;27;19928;-66
2024/01/08 00:36:53;;;;;;;;;;;-1.50;99.90;;;;;;5087003;27;20031;-66
2024/01/08 00:39:18;;;;;;;;;;;-1.50;99.90;;;;;;5094795;27;20010;-66
2024/01/08 00:41:44;;;;;;;;;;;-1.60;99.90;;;;;;5084941;27;19924;-66
2024/01/08 00:44:09;;;;;;;;;;;-1.60;99.90;;;;;;5085219;27;20301;-66
2024/01/08 00:46:35;;;;;;;;;;;-1.70;99.90;;;;;;5071593;27;19976;-65
2024/01/08 00:49:00;;;;;;;;;;;-1.70;99.90;;;;;;5087329;27;20342;-65
2024/01/08 00:51:26;;;;;;;;;;;-1.80;99.90;;;;;;5069477;27;20022;-65
2024/01/08 00:53:52;;;;;;;;;;;-1.80;99.90;;;;;;5086120;27;19923;-65
2024/01/08 00:56:18;;;;;;;;;;;-1.90;99.90;;;;;;5074131;27;20042;-65
2024/01/08 00:58:44;;;;;;;;;;;-1.90;99.90;;;;;;5086905;27;19984;-66
2024/01/08 01:01:11;;;;;;;;;;;-1.90;99.90;;;;;;5082862;28;20084;-65
2024/01/08 01:03:36;;;;;;;;;;;-2.00;99.90;;;;;;5087655;27;19934;-66
2024/01/08 01:06:02;;;;;;;;;;;-2.00;99.90;;;;;;5082507;27;19927;-65
2024/01/08 01:08:27;;;;;;;;;;;-2.00;99.90;;;;;;5084027;27;20496;-65
2024/01/08 01:10:53;;;;;;;;;;;-2.00;99.90;;;;;;5080924;27;19927;-65
2024/01/08 01:13:19;;;;;;;;;;;-2.10;99.90;;;;;;5086628;27;19977;-65
2024/01/08 01:15:44;;;;;;;;;;;-2.10;99.90;;;;;;5065733;27;20411;-65
2024/01/08 01:18:10;;;;;;;;;;;-2.10;99.90;;;;;;5085843;28;19955;-65
2024/01/08 01:20:35;;;;;;;;;;;-2.10;99.90;;;;;;5074067;27;19967;-65
2024/01/08 01:23:01;;;;;;;;;;;-2.10;99.90;;;;;;5074577;27;19967;-65
2024/01/08 01:25:27;;;;;;;;;;;-2.20;99.90;;;;;;5091720;27;20620;-65
2024/01/08 01:27:52;;;;;;;;;;;-2.20;99.90;;;;;;5089866;27;19981;-65
2024/01/08 01:30:18;;;;;;;;;;;-2.20;99.90;;;;;;5081391;27;19927;-65
2024/01/08 01:32:43;;;;;;;;;;;-2.20;99.90;;;;;;5073542;28;19923;-65
2024/01/08 01:35:09;;;;;;;;;;;-2.20;99.90;;;;;;5084294;27;20672;-65
2024/01/08 01:37:34;;;;;;;;;;;-2.20;99.90;;;;;;5056050;27;19927;-65
2024/01/08 01:40:00;;;;;;;;;;;-2.20;99.90;;;;;;5065675;28;20440;-65
2024/01/08 01:42:26;;;;;;;;;;;-2.10;99.90;;;;;;5080654;28;19924;-65
2024/01/08 01:44:51;;;;;;;;;;;-2.10;99.90;;;;;;5069718;28;19924;-65
2024/01/08 01:47:17;;;;;;;;;;;-2.10;99.90;;;;;;5075856;28;20029;-65
2024/01/08 01:49:43;;;;;;;;;;;-2.10;99.90;;;;;;5085556;27;19927;-65
2024/01/08 01:52:08;;;;;;;;;;;-2.00;99.90;;;;;;5077557;27;19936;-65
2024/01/08 01:54:34;;;;;;;;;;;-2.00;99.90;;;;;;5081713;28;19927;-65
2024/01/08 01:57:01;;;;;;;;;;;-2.00;99.90;;;;;;5068792;28;19928;-65
2024/01/08 01:59:27;;;;;;;;;;;-1.90;99.90;;;;;;5068065;28;20210;-66
2024/01/08 02:01:54;;;;;;;;;;;-2.00;99.90;;;;;;5065961;28;19935;-65
2024/01/08 02:04:20;;;;;;;;;;;-1.90;99.90;;;;;;5082901;28;19928;-65
2024/01/08 02:06:48;;;;;;;;;;;-1.90;99.90;;;;;;5078882;28;19931;-66
2024/01/08 02:09:13;;;;;;;;;;;-1.90;99.90;;;;;;5078485;28;20287;-65
2024/01/08 02:11:39;;;;;;;;;;;-1.90;99.90;;;;;;5079823;28;21121;-65
2024/01/08 02:14:05;;;;;;;;;;;-1.90;99.90;;;;;;5080008;28;20617;-65
2024/01/08 02:16:30;;;;;;;;;;;-1.80;99.90;;;;;;5085748;28;20602;-65
2024/01/08 02:18:56;;;;;;;;;;;-1.80;99.90;;;;;;5078852;28;19939;-65
2024/01/08 02:21:22;;;;;;;;;;;-1.80;99.90;;;;;;5077005;28;20507;-65
2024/01/08 02:23:47;;;;;;;;;;;-1.80;99.90;;;;;;5083774;27;19923;-65
2024/01/08 02:26:13;;;;;;;;;;;-1.80;99.90;;;;;;5092109;27;19931;-65
2024/01/08 02:28:39;;;;;;;;;;;-1.70;99.90;;;;;;5090731;27;19931;-65
2024/01/08 02:31:04;;;;;;;;;;;-1.70;99.90;;;;;;5095341;27;20018;-65
2024/01/08 02:33:30;;;;;;;;;;;-1.70;99.90;;;;;;5088223;27;19927;-65
2024/01/08 02:35:57;;;;;;;;;;;-1.70;99.90;;;;;;5078587;27;20471;-66
2024/01/08 02:38:22;;;;;;;;;;;-1.70;99.90;;;;;;5090726;27;20013;-65
2024/01/08 02:40:48;;;;;;;;;;;-1.70;99.90;;;;;;5089999;27;19980;-65
2024/01/08 02:43:13;;;;;;;;;;;-1.70;99.90;;;;;;5098417;27;19928;-65
2024/01/08 02:45:39;;;;;;;;;;;-1.60;99.90;;;;;;5099558;27;19939;-65
2024/01/08 02:48:05;;;;;;;;;;;-1.60;99.90;;;;;;5090918;27;19931;-65
2024/01/08 02:50:30;;;;;;;;;;;-1.50;99.90;;;;;;5086246;27;20445;-65
2024/01/08 02:52:56;;;;;;;;;;;-1.50;99.90;;;;;;5091725;27;19924;-65
2024/01/08 02:55:21;;;;;;;;;;;-1.50;99.90;;;;;;5081912;27;19931;-65
2024/01/08 02:57:47;;;;;;;;;;;-1.40;99.90;;;;;;5066939;27;20435;-65
2024/01/08 03:00:13;;;;;;;;;;;-1.40;99.90;;;;;;5086978;27;19934;-65
2024/01/08 03:02:39;;;;;;;;;;;-1.40;99.90;;;;;;5080749;27;19927;-65
2024/01/08 03:05:05;;;;;;;;;;;-1.40;99.90;;;;;;5086164;27;19931;-65
2024/01/08 03:07:30;;;;;;;;;;;-1.30;99.90;;;;;;5082920;27;19931;-65
2024/01/08 03:09:59;;;;;;;;;;;-1.30;99.90;;;;;;5065155;27;19929;-65
2024/01/08 03:12:25;;;;;;;;;;;-1.30;99.90;;;;;;5083919;27;19959;-65
2024/01/08 03:14:51;;;;;;;;;;;-1.30;99.90;;;;;;5076035;27;19934;-65
2024/01/08 03:17:17;;;;;;;;;;;-1.30;99.90;;;;;;5071111;27;19973;-65
2024/01/08 03:19:43;;;;;;;;;;;-1.20;99.90;;;;;;5093036;27;19928;-65
2024/01/08 03:22:08;;;;;;;;;;;-1.20;99.90;;;;;;5084035;27;19930;-65
2024/01/08 03:24:37;;;;;;;;;;;-1.20;99.90;;;;;;5072212;27;19923;-65
2024/01/08 03:27:03;;;;;;;;;;;-1.20;99.90;;;;;;5086558;27;20080;-65
2024/01/08 03:29:28;;;;;;;;;;;-1.20;99.90;;;;;;5085072;27;20564;-65
2024/01/08 03:31:54;;;;;;;;;;;-1.20;99.90;;;;;;5084881;27;19930;-65
2024/01/08 03:34:20;;;;;;;;;;;-1.20;99.90;;;;;;5070844;27;20339;-65
2024/01/08 03:36:49;;;;;;;;;;;-1.20;99.90;;;;;;5061427;27;19933;-65
2024/01/08 03:39:15;;;;;;;;;;;-1.20;99.90;;;;;;5068503;27;20006;-65
2024/01/08 03:41:41;;;;;;;;;;;-1.20;99.90;;;;;;5075972;27;19924;-65
2024/01/08 03:44:07;;;;;;;;;;;-1.20;99.90;;;;;;5071493;27;19928;-65
2024/01/08 03:46:33;;;;;;;;;;;-1.20;99.90;;;;;;5086038;27;19938;-65
2024/01/08 03:48:59;;;;;;;;;;;-1.20;99.90;;;;;;5085023;27;19923;-65
2024/01/08 03:51:24;;;;;;;;;;;-1.20;99.90;;;;;;5053047;27;20861;-65
2024/01/08 03:53:50;;;;;;;;;;;-1.10;99.90;;;;;;5097903;27;20363;-65
2024/01/08 03:56:16;;;;;;;;;;;-1.10;99.90;;;;;;5070228;27;20018;-65
2024/01/08 03:58:41;;;;;;;;;;;-1.10;99.90;;;;;;5077012;27;19927;-65
2024/01/08 04:01:07;;;;;;;;;;;-1.10;99.90;;;;;;5082647;27;20376;-65
2024/01/08 04:03:33;;;;;;;;;;;-1.10;99.90;;;;;;5068442;27;19928;-65
2024/01/08 04:05:58;;;;;;;;;;;-1.10;99.90;;;;;;5073168;27;20054;-66
2024/01/08 04:08:24;;;;;;;;;;;-1.10;99.90;;;;;;5075121;27;20294;-65
2024/01/08 04:10:49;;;;;;;;;;;-1.20;99.90;;;;;;5087121;27;19930;-65
2024/01/08 04:13:15;;;;;;;;;;;-1.20;99.90;;;;;;5084612;27;19927;-65
2024/01/08 04:15:41;;;;;;;;;;;-1.20;99.90;;;;;;5069103;27;19923;-65
2024/01/08 04:18:06;;;;;;;;;;;-1.20;99.90;;;;;;5070667;27;19937;-65
2024/01/08 04:20:32;;;;;;;;;;;-1.20;99.90;;;;;;5084392;27;19928;-65
2024/01/08 04:22:58;;;;;;;;;;;-1.20;99.90;;;;;;5091126;27;19931;-65
2024/01/08 04:25:23;;;;;;;;;;;-1.20;99.90;;;;;;5093624;27;19927;-65
2024/01/08 04:27:49;;;;;;;;;;;-1.20;99.90;;;;;;5088868;27;19928;-65
2024/01/08 04:30:15;;;;;;;;;;;-1.20;99.90;;;;;;5110216;27;19927;-65
2024/01/08 04:32:40;;;;;;;;;;;-1.20;99.90;;;;;;5093502;27;19953;-65
2024/01/08 04:35:06;;;;;;;;;;;-1.20;99.90;;;;;;5093205;28;20019;-65
2024/01/08 04:37:31;;;;;;;;;;;-1.20;99.90;;;;;;5073997;28;20011;-65
2024/01/08 04:39:57;;;;;;;;;;;-1.20;99.90;;;;;;5093619;27;19924;-65
2024/01/08 04:42:23;;;;;;;;;;;-1.20;99.90;;;;;;5078961;27;19991;-65
2024/01/08 04:44:48;;;;;;;;;;;-1.30;99.90;;;;;;5095566;27;19924;-65
2024/01/08 04:47:14;;;;;;;;;;;-1.30;99.90;;;;;;5091974;27;20002;-65
2024/01/08 04:49:40;;;;;;;;;;;-1.30;99.90;;;;;;5092407;27;20379;-65
2024/01/08 04:52:06;;;;;;;;;;;-1.30;99.90;;;;;;5077096;27;19928;-65
2024/01/08 04:54:31;;;;;;;;;;;-1.30;99.90;;;;;;5088837;27;20361;-65
2024/01/08 04:56:57;;;;;;;;;;;-1.30;99.90;;;;;;5081221;28;19928;-65
2024/01/08 04:59:23;;;;;;;;;;;-1.40;99.90;;;;;;5079653;28;20426;-65
2024/01/08 05:01:50;;;;;;;;;;;-1.40;99.90;;;;;;5071267;28;19973;-65
2024/01/08 05:04:15;;;;;;;;;;;-1.40;99.90;;;;;;5070079;28;20019;-65
2024/01/08 05:06:42;;;;;;;;;;;-1.50;99.90;;;;;;5059673;28;20651;-65
2024/01/08 05:09:08;;;;;;;;;;;-1.50;99.90;;;;;;5059989;28;19924;-65
2024/01/08 05:11:34;;;;;;;;;;;-1.60;99.90;;;;;;5070759;28;20023;-65
2024/01/08 05:14:00;;;;;;;;;;;-1.70;99.90;;;;;;5077140;28;19954;-65
2024/01/08 05:16:25;;;;;;;;;;;-1.70;99.90;;;;;;5076740;28;19930;-65
2024/01/08 05:18:51;;;;;;;;;;;-1.70;99.90;;;;;;5093312;28;19996;-65
2024/01/08 05:21:16;;;;;;;;;;;-1.80;99.90;;;;;;5076439;28;19927;-65
2024/01/08 05:23:42;;;;;;;;;;;-1.90;99.90;;;;;;5065387;28;19967;-65
2024/01/08 05:26:08;;;;;;;;;;;-1.90;99.90;;;;;;5065152;28;20486;-65
2024/01/08 05:28:33;;;;;;;;;;;-1.90;99.90;;;;;;5081910;28;20019;-65
2024/01/08 05:30:59;;;;;;;;;;;-2.00;99.90;;;;;;5079734;28;20417;-65
2024/01/08 05:33:27;;;;;;;;;;;-2.00;99.90;;;;;;5060624;28;19954;-65
2024/01/08 05:35:53;;;;;;;;;;;-2.00;99.90;;;;;;5074969;28;19928;-65
2024/01/08 05:38:19;;;;;;;;;;;-2.10;99.90;;;;;;5062632;28;19960;-65
2024/01/08 05:40:45;;;;;;;;;;;-2.10;99.90;;;;;;5072355;28;19928;-65
2024/01/08 05:43:10;;;;;;;;;;;-2.10;99.90;;;;;;5070361;28;20046;-65
2024/01/08 05:45:36;;;;;;;;;;;-2.20;99.90;;;;;;5061207;28;19974;-65
2024/01/08 05:48:02;;;;;;;;;;;-2.10;99.90;;;;;;5068467;28;19971;-65
2024/01/08 05:50:27;;;;;;;;;;;-2.10;99.90;;;;;;5070591;28;19928;-65
2024/01/08 05:52:54;;;;;;;;;;;-2.20;99.90;;;;;;5062215;28;19928;-65
2024/01/08 05:55:23;;;;;;;;;;;-2.20;99.90;;;;;;5065997;28;20426;-65
2024/01/08 05:57:48;;;;;;;;;;;-2.20;99.90;;;;;;5067404;28;20416;-65
2024/01/08 06:00:15;;;;;;;;;;;-2.20;99.90;;;;;;5079558;28;20017;-65
2024/01/08 06:02:41;;;;;;;;;;;-2.20;99.90;;;;;;5065637;28;20491;-65
2024/01/08 06:05:07;;;;;;;;;;;-2.20;99.90;;;;;;5088216;28;19930;-65
2024/01/08 06:07:33;;;;;;;;;;;-2.20;99.90;;;;;;5072208;28;19931;-66
2024/01/08 06:09:59;;;;;;;;;;;-2.20;99.90;;;;;;5076311;28;19977;-65
2024/01/08 06:12:24;;;;;;;;;;;-2.30;99.90;;;;;;5082973;28;19931;-65
2024/01/08 06:14:50;;;;;;;;;;;-2.30;99.90;;;;;;5094865;28;20034;-65
2024/01/08 06:17:17;;;;;;;;;;;-2.30;99.90;;;;;;5078683;28;20354;-65
2024/01/08 06:19:42;;;;;;;;;;;-2.30;99.90;;;;;;5084353;28;19932;-65
2024/01/08 06:22:08;;;;;;;;;;;-2.30;99.90;;;;;;5081992;28;20001;-65
2024/01/08 06:24:34;;;;;;;;;;;-2.30;99.90;;;;;;5088297;28;19927;-66
2024/01/08 06:27:00;;;;;;;;;;;-2.30;99.90;;;;;;5081174;28;19927;-65
2024/01/08 06:29:25;;;;;;;;;;;-2.40;99.90;;;;;;5078492;28;20967;-65
2024/01/08 06:31:51;;;;;;;;;;;-2.40;99.90;;;;;;5076430;28;19923;-65
2024/01/08 06:34:17;;;;;;;;;;;-2.30;99.90;;;;;;5071894;28;20405;-65
2024/01/08 06:36:43;;;;;;;;;;;-2.30;99.90;;;;;;5078263;28;19934;-65
2024/01/08 06:39:12;;;;;;;;;;;-2.30;99.90;;;;;;5075328;28;20511;-65
2024/01/08 06:41:37;;;;;;;;;;;-2.30;99.90;;;;;;5086779;28;20451;-65
2024/01/08 06:44:03;;;;;;;;;;;-2.20;99.90;;;;;;5081689;28;19929;-65
2024/01/08 06:46:29;;;;;;;;;;;-2.20;99.90;;;;;;5084358;28;19927;-65
2024/01/08 06:48:55;;;;;;;;;;;-2.10;99.90;;;;;;5069299;28;19946;-65
2024/01/08 06:51:20;;;;;;;;;;;-2.10;99.90;;;;;;5067032;28;19966;-65
2024/01/08 06:53:46;;;;;;;;;;;-2.00;99.90;;;;;;5083177;28;20416;-65
2024/01/08 06:56:12;;;;;;;;;;;-2.00;99.90;;;;;;5065780;28;19934;-65
2024/01/08 06:58:38;;;;;;;;;;;-2.00;99.90;;;;;;5100990;28;20398;-65
2024/01/08 07:01:05;;;;;;;;;;;-1.90;99.90;;;;;;5089989;28;19928;-65
2024/01/08 07:03:30;;;;;;;;;;;-1.90;99.90;;;;;;5083304;28;19923;-68
2024/01/08 07:05:56;;;;;;;;;;;-1.70;99.90;;;;;;5085900;28;19973;-68
2024/01/08 07:08:22;;;;;;;;;;;-1.80;99.90;;;;;;5095255;28;19976;-68
2024/01/08 07:10:47;;;;;;;;;;;-1.80;99.90;;;;;;5076028;27;19953;-68
2024/01/08 07:13:14;;;;;;;;;;;-1.70;99.90;;;;;;5093508;27;19927;-68
2024/01/08 07:15:40;;;;;;;;;;;-1.70;99.90;;;;;;5085877;27;20382;-68
2024/01/08 07:18:10;;;;;;;;;;;-1.70;99.90;;;;;;5086640;27;19923;-69
2024/01/08 07:20:37;;;;;;;;;;;-1.50;99.90;;;;;;5056601;27;19924;-69
2024/01/08 07:23:03;;;;;;;;;;;-1.60;99.90;;;;;;5097450;27;20033;-68
2024/01/08 07:25:29;;;;;;;;;;;-1.60;99.90;;;;;;5090071;27;19977;-68
2024/01/08 07:27:54;;;;;;;;;;;-1.30;99.90;;;;;;5086917;27;20441;-68
2024/01/08 07:30:20;;;;;;;;;;;-1.50;99.90;;;;;;5072595;27;20518;-68
2024/01/08 07:32:47;;;;;;;;;;;-1.50;99.90;;;;;;5092161;27;20212;-69
2024/01/08 07:35:13;;;;;;;;;;;-1.50;99.90;;;;;;5099734;27;20489;-68
2024/01/08 07:37:39;;;;;;;;;;;-1.50;99.90;;;;;;5091903;27;19930;-68
2024/01/08 07:40:05;;;;;;;;;;;-1.50;99.90;;;;;;5090552;27;20355;-69
2024/01/08 07:42:31;;;;;;;;;;;-1.50;99.90;;;;;;5080890;27;19924;-69
2024/01/08 07:44:57;;;;;;;;;;;-1.40;99.90;;;;;;5079227;27;19950;-69
2024/01/08 07:47:22;;;;;;;;;;;-1.40;99.90;;;;;;5091294;27;19939;-68
2024/01/08 07:49:48;;;;;;;;;;;-1.30;99.90;;;;;;5074966;27;19931;-69
2024/01/08 07:52:13;;;;;;;;;;;-1.40;99.90;;;;;;5086814;28;20696;-69
2024/01/08 07:54:39;;;;;;;;;;;-1.40;99.90;;;;;;5112840;27;19923;-68
2024/01/08 07:57:04;;;;;;;;;;;-1.40;99.90;;;;;;5079190;27;19933;-68
2024/01/08 07:59:30;;;;;;;;;;;-1.40;99.90;;;;;;5093066;27;19989;-69
2024/01/08 08:01:56;;;;;;;;;;;-1.40;99.90;;;;;;5085589;27;20377;-68
2024/01/08 08:04:21;;;;;;;;;;;-1.30;99.90;;;;;;5092747;27;20408;-69
2024/01/08 08:06:47;;;;;;;;;;;-1.30;99.90;;;;;;5089645;27;19927;-68
2024/01/08 08:09:13;;;;;;;;;;;-1.30;99.90;;;;;;5087996;27;19975;-68
2024/01/08 08:11:39;;;;;;;;;;;-1.30;99.90;;;;;;5092359;27;19923;-69
2024/01/08 08:14:05;;;;;;;;;;;-1.20;99.90;;;;;;5091313;27;19927;-69
2024/01/08 08:16:31;;;;;;;;;;;-1.20;99.90;;;;;;5091966;27;19923;-69
2024/01/08 08:18:56;;;;;;;;;;;-1.20;99.90;;;;;;5090498;27;20306;-69
2024/01/08 08:21:22;;;;;;;;;;;-1.20;99.90;;;;;;5090501;27;19927;-69
2024/01/08 08:23:48;;;;;;;;;;;-1.20;99.90;;;;;;5076609;27;20339;-69
2024/01/08 08:26:14;;;;;;;;;;;-1.10;99.90;;;;;;5091769;27;19973;-69
2024/01/08 08:28:40;;;;;;;;;;;-1.10;99.90;;;;;;5097784;27;19923;-69
2024/01/08 08:31:05;;;;;;;;;;;-1.10;99.90;;;;;;5095970;27;19924;-69
2024/01/08 08:33:31;;;;;;;;;;;-1.10;99.90;;;;;;5090109;27;20018;-69
2024/01/08 08:35:57;;;;;;;;;;;-1.10;99.90;;;;;;5076704;27;20425;-69
2024/01/08 08:38:23;;;;;;;;;;;-1.10;99.90;;;;;;5086919;27;19927;-69
2024/01/08 08:40:48;;;;;;;;;;;-1.00;99.90;;;;;;5067362;27;19923;-68
2024/01/08 08:43:14;;;;;;;;;;;-1.10;99.90;;;;;;5088656;27;20380;-69
2024/01/08 08:45:40;;;;;;;;;;;-1.00;99.90;;;;;;5072431;27;20014;-69
2024/01/08 08:48:06;;;;;;;;;;;-1.00;99.90;;;;;;5091812;27;20287;-69
2024/01/08 08:50:31;;;;;;;;;;;-1.00;99.90;;;;;;5080129;27;19979;-69
2024/01/08 08:52:57;;;;;;;;;;;-0.90;99.90;;;;;;5078367;27;19970;-69
2024/01/08 08:55:22;;;;;;;;;;;-0.90;99.90;;;;;;5087703;27;19927;-69
2024/01/08 08:57:48;;;;;;;;;;;-0.90;99.90;;;;;;5088756;27;19927;-69
2024/01/08 09:00:14;;;;;;;;;;;-0.80;99.90;;;;;;5087978;27;20366;-69
2024/01/08 09:02:39;;;;;;;;;;;-0.80;99.90;;;;;;5071475;27;19920;-69
2024/01/08 09:05:05;;;;;;;;;;;-0.60;99.90;;;;;;5088043;27;19927;-68
2024/01/08 09:07:31;;;;;;;;;;;-0.80;99.90;;;;;;5086192;27;19931;-69
2024/01/08 09:09:56;;;;;;;;;;;-0.80;99.90;;;;;;5072869;27;19923;-69
2024/01/08 09:12:22;;;;;;;;;;;-0.70;99.90;;;;;;5087179;27;19927;-69
2024/01/08 09:14:47;;;;;;;;;;;-0.70;99.90;;;;;;5090807;27;19923;-68
2024/01/08 09:17:13;;;;;;;;;;;-0.70;99.90;;;;;;5085708;27;19930;-69
2024/01/08 09:19:38;;;;;;;;;;;-0.70;99.90;;;;;;5112320;27;19927;-69
2024/01/08 09:22:04;;;;;;;;;;;-0.60;99.90;;;;;;5116364;27;20402;-69
2024/01/08 09:24:30;;;;;;;;;;;-0.60;99.90;;;;;;5088962;27;20194;-69
2024/01/08 09:26:55;;;;;;;;;;;-0.60;99.90;;;;;;5095728;27;20531;-69
2024/01/08 09:29:21;;;;;;;;;;;-0.60;99.90;;;;;;5087595;27;19923;-69
2024/01/08 09:31:47;;;;;;;;;;;-0.60;99.90;;;;;;5091687;27;20518;-69
2024/01/08 09:34:12;;;;;;;;;;;-0.50;99.90;;;;;;5087375;27;19928;-69
2024/01/08 09:36:38;;;;;;;;;;;-0.50;99.90;;;;;;5060635;27;20406;-69
2024/01/08 09:39:03;;;;;;;;;;;-0.50;99.90;;;;;;5093127;28;20388;-69
2024/01/08 09:41:29;;;;;;;;;;;-0.50;99.90;;;;;;5070426;28;20001;-69
2024/01/08 09:44:03;;;;;;;;;;;-0.50;99.90;;;;;;5087756;27;19924;-69
2024/01/08 09:46:30;;;;;;;;;;;-0.50;99.90;;;;;;5086842;28;20148;-69
2024/01/08 09:48:56;;;;;;;;;;;-0.50;99.90;;;;;;5097033;28;20337;-69
2024/01/08 09:51:22;;;;;;;;;;;-0.40;99.90;;;;;;5069480;28;19924;-69
2024/01/08 09:53:48;;;;;;;;;;;-0.40;99.90;;;;;;5089183;28;20325;-69
2024/01/08 09:56:15;;;;;;;;;;;-0.40;99.90;;;;;;5077413;28;19956;-69
2024/01/08 09:58:43;;;;;;;;;;;-0.40;99.90;;;;;;5060276;28;19939;-69
2024/01/08 10:01:08;;;;;;;;;;;-0.40;99.90;;;;;;5094964;28;20029;-69
2024/01/08 10:03:35;;;;;;;;;;;-0.30;99.90;;;;;;5105997;28;20776;-69
2024/01/08 10:06:10;;;;;;;;;;;-0.40;99.90;;;;;;5089877;28;20385;-69
2024/01/08 10:08:36;;;;;;;;;;;-0.40;99.90;;;;;;5081018;28;20247;-69
2024/01/08 10:11:03;;;;;;;;;;;-0.40;99.90;;;;;;5099497;28;20488;-69
2024/01/08 10:13:28;;;;;;;;;;;-0.40;99.90;;;;;;5088272;28;19924;-69
2024/01/08 10:15:54;;;;;;;;;;;-0.30;99.90;;;;;;5072932;28;20056;-69
2024/01/08 10:18:20;;;;;;;;;;;-0.40;99.90;;;;;;5089843;28;20385;-69
2024/01/08 10:20:45;;;;;;;;;;;-0.30;99.90;;;;;;5070132;28;19928;-69
2024/01/08 10:23:16;;;;;;;;;;;-0.30;99.90;;;;;;5060466;28;20054;-69
2024/01/08 10:25:53;;;;;;;;;;;-0.30;99.90;;;;;;5090212;28;19946;-69
2024/01/08 10:28:19;;;;;;;;;;;-0.30;99.90;;;;;;5088636;28;19928;-69
2024/01/08 10:30:44;;;;;;;;;;;-0.30;99.90;;;;;;5088032;28;19980;-69
2024/01/08 10:33:10;;;;;;;;;;;-0.20;99.90;;;;;;5088456;28;20620;-69
2024/01/08 10:35:36;;;;;;;;;;;-0.20;99.90;;;;;;5074579;28;19923;-69
2024/01/08 10:38:01;;;;;;;;;;;-0.20;99.90;;;;;;5080729;28;20372;-69
2024/01/08 10:40:28;;;;;;;;;;;-0.20;99.90;;;;;;5072967;28;19931;-69
2024/01/08 10:42:54;;;;;;;;;;;-0.20;99.90;;;;;;5085900;28;19959;-69
2024/01/08 10:45:20;;;;;;;;;;;-0.20;99.90;;;;;;5072077;27;19999;-69
2024/01/08 10:47:50;;;;;;;;;;;-0.20;99.90;;;;;;5091072;27;19932;-69
2024/01/08 10:50:18;;;;;;;;;;;-0.20;99.90;;;;;;5079054;27;20439;-69
2024/01/08 10:52:56;;;;;;;;;;;-0.20;99.90;;;;;;5090033;27;20381;-69
2024/01/08 10:55:25;;;;;;;;;;;-0.10;99.90;;;;;;5070472;27;20385;-69
2024/01/08 10:57:58;;;;;;;;;;;0.00;99.90;;;;;;5075603;28;19928;-69
2024/01/08 11:00:24;;;;;;;;;;;0.10;99.90;;;;;;5065898;28;20006;-69
2024/01/08 11:02:50;;;;;;;;;;;0.20;99.90;;;;;;5073376;28;19928;-69
2024/01/08 11:05:19;;;;;;;;;;;0.20;99.90;;;;;;5074658;28;19928;-69
2024/01/08 11:07:47;;;;;;;;;;;0.20;99.90;;;;;;5076485;28;19942;-69
2024/01/08 11:10:12;;;;;;;;;;;0.20;99.90;;;;;;5074917;28;19971;-69
2024/01/08 11:12:41;;;;;;;;;;;0.20;99.90;;;;;;5071808;28;20014;-69
2024/01/08 11:15:07;;;;;;;;;;;0.20;99.90;;;;;;5059906;28;20018;-69
2024/01/08 11:17:33;;;;;;;;;;;0.20;99.90;;;;;;5064166;28;19928;-69
2024/01/08 11:19:59;;;;;;;;;;;0.20;99.90;;;;;;5072688;28;19935;-69
2024/01/08 11:22:25;;;;;;;;;;;0.20;99.90;;;;;;5064406;28;19924;-69
2024/01/08 11:24:56;;;;;;;;;;;0.20;99.90;;;;;;5068676;28;19928;-69
2024/01/08 11:27:21;;;;;;;;;;;0.20;99.90;;;;;;5065844;28;20332;-69
2024/01/08 11:30:01;;;;;;;;;;;0.20;99.90;;;;;;5071021;28;19923;-69
2024/01/08 11:32:54;;;;;;;;;;;0.20;99.90;;;;;;5074628;28;19923;-68
2024/01/08 11:35:20;;;;;;;;;;;0.20;99.90;;;;;;5071076;28;19927;-69
2024/01/08 11:37:53;;;;;;;;;;;0.20;99.90;;;;;;5077634;28;19970;-69
2024/01/08 11:40:19;;;;;;;;;;;0.20;99.90;;;;;;5070589;28;19920;-68
2024/01/08 11:42:46;;;;;;;;;;;0.20;99.90;;;;;;5067386;28;19928;-69
2024/01/08 11:45:12;;;;;;;;;;;0.20;99.90;;;;;;5056967;28;19957;-68
2024/01/08 11:47:38;;;;;;;;;;;0.30;99.90;;;;;;5075562;28;19934;-69
2024/01/08 11:50:07;;;;;;;;;;;0.20;99.90;;;;;;5076269;28;20308;-68
2024/01/08 11:52:36;;;;;;;;;;;0.20;99.90;;;;;;5064336;28;20432;-69
2024/01/08 11:55:04;;;;;;;;;;;0.20;99.90;;;;;;5088364;28;20264;-69
2024/01/08 11:57:30;;;;;;;;;;;0.20;99.90;;;;;;5064803;28;19977;-69
2024/01/08 11:59:56;;;;;;;;;;;0.20;99.90;;;;;;5071115;28;20299;-68
2024/01/08 12:02:27;;;;;;;;;;;0.30;99.90;;;;;;5073079;28;19963;-69
2024/01/08 12:04:53;;;;;;;;;;;0.30;99.90;;;;;;5080371;28;20350;-68
2024/01/08 12:07:19;;;;;;;;;;;0.40;99.90;;;;;;5076264;28;19932;-69
2024/01/08 12:09:45;;;;;;;;;;;0.40;99.90;;;;;;5085001;28;20311;-69
2024/01/08 12:12:11;;;;;;;;;;;0.50;99.90;;;;;;5074693;28;19931;-69
2024/01/08 12:14:37;;;;;;;;;;;0.50;99.90;;;;;;5071957;28;20029;-68
2024/01/08 12:17:03;;;;;;;;;;;0.50;99.90;;;;;;5071027;28;20405;-68
2024/01/08 12:19:36;;;;;;;;;;;0.50;99.90;;;;;;5075569;28;19974;-69
2024/01/08 12:22:02;;;;;;;;;;;0.50;99.90;;;;;;5071315;28;19977;-68
2024/01/08 12:24:27;;;;;;;;;;;0.50;99.90;;;;;;5085328;28;19927;-68
2024/01/08 12:26:59;;;;;;;;;;;0.50;99.90;;;;;;5083755;28;19962;-69
2024/01/08 12:29:25;;;;;;;;;;;0.50;99.90;;;;;;5084389;28;20204;-69
2024/01/08 12:32:00;;;;;;;;;;;0.50;99.90;;;;;;5075950;28;19969;-68
2024/01/08 12:34:29;;;;;;;;;;;0.50;99.90;;;;;;5090537;28;19923;-68
2024/01/08 12:36:55;;;;;;;;;;;0.50;99.90;;;;;;5088237;28;19931;-68
2024/01/08 12:39:25;;;;;;;;;;;0.50;99.90;;;;;;5100582;27;20267;-68
2024/01/08 12:41:55;;;;;;;;;;;0.50;99.90;;;;;;5084245;28;20468;-68
2024/01/08 12:44:22;;;;;;;;;;;0.50;99.90;;;;;;5078676;28;20022;-68
2024/01/08 12:46:47;;;;;;;;;;;0.50;99.90;;;;;;5069470;28;19928;-68
2024/01/08 12:49:13;;;;;;;;;;;0.50;99.90;;;;;;5088459;28;19930;-68
2024/01/08 12:51:39;;;;;;;;;;;0.50;99.90;;;;;;5079836;28;20045;-68
2024/01/08 12:54:05;;;;;;;;;;;0.50;99.90;;;;;;5073937;28;19956;-68
2024/01/08 12:56:31;;;;;;;;;;;0.60;99.90;;;;;;5078721;28;20083;-68
2024/01/08 12:58:57;;;;;;;;;;;0.50;99.90;;;;;;5086059;28;19931;-68
2024/01/08 13:01:22;;;;;;;;;;;0.60;99.90;;;;;;5076845;28;20081;-69
2024/01/08 13:03:48;;;;;;;;;;;0.60;99.90;;;;;;5068884;28;19923;-68
2024/01/08 13:06:15;;;;;;;;;;;0.70;99.90;;;;;;5083949;28;20456;-68
2024/01/08 13:08:41;;;;;;;;;;;0.70;99.90;;;;;;5083383;28;20001;-68
2024/01/08 13:11:06;;;;;;;;;;;0.80;99.90;;;;;;5083106;28;19923;-68
2024/01/08 13:13:32;;;;;;;;;;;0.90;99.90;;;;;;5079714;28;19959;-68
2024/01/08 13:15:57;;;;;;;;;;;1.00;99.90;;;;;;5088875;28;19924;-69
2024/01/08 13:18:23;;;;;;;;;;;1.10;99.90;;;;;;5086127;28;19923;-68
2024/01/08 13:20:48;;;;;;;;;;;1.20;99.90;;;;;;5084953;28;20387;-68
2024/01/08 13:23:14;;;;;;;;;;;1.30;99.90;;;;;;5074879;28;19939;-68
2024/01/08 13:25:40;;;;;;;;;;;1.30;99.90;;;;;;5083809;28;19923;-68
2024/01/08 13:28:06;;;;;;;;;;;1.30;99.90;;;;;;5082163;28;20385;-68
2024/01/08 13:30:32;;;;;;;;;;;1.30;99.90;;;;;;5083483;28;20340;-68
2024/01/08 13:32:57;;;;;;;;;;;1.30;99.90;;;;;;5073427;28;19969;-68
2024/01/08 13:35:23;;;;;;;;;;;1.20;99.90;;;;;;5082466;28;20388;-68
2024/01/08 13:37:49;;;;;;;;;;;1.20;99.90;;;;;;5085253;28;20503;-68
2024/01/08 13:40:14;;;;;;;;;;;1.10;99.90;;;;;;5090708;28;19931;-68
2024/01/08 13:42:40;;;;;;;;;;;1.00;99.90;;;;;;5097142;28;20567;-68
2024/01/08 13:45:08;;;;;;;;;;;0.80;99.90;;;;;;5080666;28;20037;-68
2024/01/08 13:47:34;;;;;;;;;;;0.70;99.90;;;;;;5079519;28;20475;-68
2024/01/08 13:49:59;;;;;;;;;;;0.60;99.90;;;;;;5087924;28;20507;-68
2024/01/08 13:52:26;;;;;;;;;;;0.50;99.90;;;;;;5085158;28;19936;-68
2024/01/08 13:54:51;;;;;;;;;;;0.40;99.90;;;;;;5089946;28;19924;-68
2024/01/08 13:57:17;;;;;;;;;;;0.30;99.90;;;;;;5074701;28;20017;-68
2024/01/08 13:59:42;;;;;;;;;;;0.20;99.90;;;;;;5074907;28;20370;-68
2024/01/08 14:02:10;;;;;;;;;;;0.20;99.90;;;;;;5084016;28;20810;-68
2024/01/08 14:04:36;;;;;;;;;;;0.10;99.90;;;;;;5064594;28;20421;-68
2024/01/08 14:07:02;;;;;;;;;;;0.10;99.90;;;;;;5042859;28;19932;-68
2024/01/08 14:09:27;;;;;;;;;;;0.10;99.90;;;;;;5070958;28;19959;-68
2024/01/08 14:11:53;;;;;;;;;;;0.00;99.90;;;;;;5048073;28;20359;-68
2024/01/08 14:14:18;;;;;;;;;;;0.00;99.90;;;;;;5064930;28;19924;-68